sensor_id;sensor_type;location;lat;lon;timestamp;P1;durP1;ratioP1;P2;durP2;ratioP2
21671;SDS011;10997;52.242;8.168;2022-12-10T00:02:42;75.93;;;37.75;;
21671;SDS011;10997;52.242;8.168;2022-12-10T00:07:43;74.63;;;37.90;;
21671;SDS011;10997;52.242;8.168;2022-12-10T00:12:44;69.90;;;35.35;;
21671;SDS011;10997;52.242;8.168;2022-12-10T00:17:44;74.10;;;35.42;;
21671;SDS011;10997;52.242;8.168;2022-12-10T00:22:45;71.47;;;36.55;;
21671;SDS011;10997;52.242;8.168;2022-12-10T00:27:46;71.65;;;36.15;;
21671;SDS011;10997;52.242;8.168;2022-12-10T00:32:46;67.85;;;33.92;;
21671;SDS011;10997;52.242;8.168;2022-12-10T00:37:47;66.55;;;32.83;;
21671;SDS011;10997;52.242;8.168;2022-12-10T00:42:47;66.15;;;32.38;;
21671;SDS011;10997;52.242;8.168;2022-12-10T00:47:48;65.78;;;32.45;;
21671;SDS011;10997;52.242;8.168;2022-12-10T00:52:48;63.97;;;32.13;;
21671;SDS011;10997;52.242;8.168;2022-12-10T00:57:49;64.70;;;33.30;;
21671;SDS011;10997;52.242;8.168;2022-12-10T01:02:50;62.50;;;31.83;;
21671;SDS011;10997;52.242;8.168;2022-12-10T01:07:54;71.85;;;34.15;;
21671;SDS011;10997;52.242;8.168;2022-12-10T01:12:54;70.20;;;33.47;;
21671;SDS011;10997;52.242;8.168;2022-12-10T01:17:55;68.45;;;34.15;;
21671;SDS011;10997;52.242;8.168;2022-12-10T01:22:56;73.75;;;37.40;;
21671;SDS011;10997;52.242;8.168;2022-12-10T01:27:56;72.03;;;36.17;;
21671;SDS011;10997;52.242;8.168;2022-12-10T01:32:57;70.43;;;34.95;;
21671;SDS011;10997;52.242;8.168;2022-12-10T01:37:57;72.13;;;35.25;;
21671;SDS011;10997;52.242;8.168;2022-12-10T01:42:58;77.65;;;38.40;;
21671;SDS011;10997;52.242;8.168;2022-12-10T01:47:58;74.28;;;37.60;;
21671;SDS011;10997;52.242;8.168;2022-12-10T01:52:59;73.57;;;35.72;;
21671;SDS011;10997;52.242;8.168;2022-12-10T01:58:00;73.53;;;36.53;;
21671;SDS011;10997;52.242;8.168;2022-12-10T02:03:04;71.13;;;35.25;;
21671;SDS011;10997;52.242;8.168;2022-12-10T02:13:27;68.75;;;34.60;;
21671;SDS011;10997;52.242;8.168;2022-12-10T02:18:35;68.10;;;34.97;;
21671;SDS011;10997;52.242;8.168;2022-12-10T02:23:43;70.50;;;35.58;;
21671;SDS011;10997;52.242;8.168;2022-12-10T02:34:13;71.15;;;35.30;;
21671;SDS011;10997;52.242;8.168;2022-12-10T02:39:17;76.22;;;36.03;;
21671;SDS011;10997;52.242;8.168;2022-12-10T02:49:24;75.57;;;37.33;;
21671;SDS011;10997;52.242;8.168;2022-12-10T02:54:34;72.90;;;37.00;;
21671;SDS011;10997;52.242;8.168;2022-12-10T03:15:59;74.70;;;38.05;;
21671;SDS011;10997;52.242;8.168;2022-12-10T03:21:03;74.93;;;37.35;;
21671;SDS011;10997;52.242;8.168;2022-12-10T03:26:05;77.75;;;39.10;;
21671;SDS011;10997;52.242;8.168;2022-12-10T03:31:09;70.93;;;36.45;;
21671;SDS011;10997;52.242;8.168;2022-12-10T03:36:11;72.88;;;37.13;;
21671;SDS011;10997;52.242;8.168;2022-12-10T03:41:13;71.32;;;37.13;;
21671;SDS011;10997;52.242;8.168;2022-12-10T03:46:14;71.10;;;37.80;;
21671;SDS011;10997;52.242;8.168;2022-12-10T03:51:14;75.53;;;38.95;;
21671;SDS011;10997;52.242;8.168;2022-12-10T03:56:15;79.72;;;39.75;;
21671;SDS011;10997;52.242;8.168;2022-12-10T04:01:17;76.35;;;37.88;;
21671;SDS011;10997;52.242;8.168;2022-12-10T04:06:18;74.78;;;37.95;;
21671;SDS011;10997;52.242;8.168;2022-12-10T04:11:19;77.85;;;38.35;;
21671;SDS011;10997;52.242;8.168;2022-12-10T04:16:20;74.40;;;38.33;;
21671;SDS011;10997;52.242;8.168;2022-12-10T04:21:27;74.22;;;38.45;;
21671;SDS011;10997;52.242;8.168;2022-12-10T04:26:48;72.88;;;38.08;;
21671;SDS011;10997;52.242;8.168;2022-12-10T04:31:52;73.53;;;39.22;;
21671;SDS011;10997;52.242;8.168;2022-12-10T04:36:53;75.93;;;35.92;;
21671;SDS011;10997;52.242;8.168;2022-12-10T04:41:54;73.68;;;37.25;;
21671;SDS011;10997;52.242;8.168;2022-12-10T04:47:02;74.38;;;37.40;;
21671;SDS011;10997;52.242;8.168;2022-12-10T04:52:05;69.32;;;37.00;;
21671;SDS011;10997;52.242;8.168;2022-12-10T04:57:07;69.85;;;35.55;;
21671;SDS011;10997;52.242;8.168;2022-12-10T05:02:07;68.57;;;36.38;;
21671;SDS011;10997;52.242;8.168;2022-12-10T05:07:08;72.80;;;36.72;;
21671;SDS011;10997;52.242;8.168;2022-12-10T05:12:08;67.38;;;35.30;;
21671;SDS011;10997;52.242;8.168;2022-12-10T05:17:09;69.47;;;36.17;;
21671;SDS011;10997;52.242;8.168;2022-12-10T05:22:10;72.18;;;35.72;;
21671;SDS011;10997;52.242;8.168;2022-12-10T05:27:33;70.32;;;36.72;;
21671;SDS011;10997;52.242;8.168;2022-12-10T05:32:34;72.50;;;36.22;;
21671;SDS011;10997;52.242;8.168;2022-12-10T05:37:35;70.05;;;35.70;;
21671;SDS011;10997;52.242;8.168;2022-12-10T05:42:36;66.60;;;35.90;;
21671;SDS011;10997;52.242;8.168;2022-12-10T05:47:36;61.45;;;33.20;;
21671;SDS011;10997;52.242;8.168;2022-12-10T05:52:37;66.15;;;33.67;;
21671;SDS011;10997;52.242;8.168;2022-12-10T05:57:37;64.97;;;34.35;;
21671;SDS011;10997;52.242;8.168;2022-12-10T06:02:38;63.85;;;34.70;;
21671;SDS011;10997;52.242;8.168;2022-12-10T06:07:38;62.38;;;33.42;;
21671;SDS011;10997;52.242;8.168;2022-12-10T06:12:39;63.08;;;34.03;;
21671;SDS011;10997;52.242;8.168;2022-12-10T06:17:40;66.72;;;34.00;;
21671;SDS011;10997;52.242;8.168;2022-12-10T06:22:40;61.08;;;32.47;;
21671;SDS011;10997;52.242;8.168;2022-12-10T06:27:41;59.70;;;32.20;;
21671;SDS011;10997;52.242;8.168;2022-12-10T06:32:41;67.22;;;34.65;;
21671;SDS011;10997;52.242;8.168;2022-12-10T06:37:42;64.05;;;33.85;;
21671;SDS011;10997;52.242;8.168;2022-12-10T06:42:43;65.50;;;33.80;;
21671;SDS011;10997;52.242;8.168;2022-12-10T06:47:44;61.92;;;34.67;;
21671;SDS011;10997;52.242;8.168;2022-12-10T06:52:45;66.22;;;33.80;;
21671;SDS011;10997;52.242;8.168;2022-12-10T06:57:46;64.47;;;34.20;;
21671;SDS011;10997;52.242;8.168;2022-12-10T07:02:47;63.80;;;33.97;;
21671;SDS011;10997;52.242;8.168;2022-12-10T07:07:48;62.35;;;33.65;;
21671;SDS011;10997;52.242;8.168;2022-12-10T07:12:48;67.45;;;36.22;;
21671;SDS011;10997;52.242;8.168;2022-12-10T07:17:50;59.88;;;33.58;;
21671;SDS011;10997;52.242;8.168;2022-12-10T07:22:51;65.93;;;35.70;;
21671;SDS011;10997;52.242;8.168;2022-12-10T07:27:52;62.97;;;34.15;;
21671;SDS011;10997;52.242;8.168;2022-12-10T07:32:52;65.70;;;34.95;;
21671;SDS011;10997;52.242;8.168;2022-12-10T07:37:53;60.83;;;33.22;;
21671;SDS011;10997;52.242;8.168;2022-12-10T07:42:53;58.20;;;33.45;;
21671;SDS011;10997;52.242;8.168;2022-12-10T07:47:54;57.33;;;32.30;;
21671;SDS011;10997;52.242;8.168;2022-12-10T07:52:54;59.33;;;32.55;;
21671;SDS011;10997;52.242;8.168;2022-12-10T07:57:55;59.15;;;31.67;;
21671;SDS011;10997;52.242;8.168;2022-12-10T08:02:55;56.35;;;31.98;;
21671;SDS011;10997;52.242;8.168;2022-12-10T08:07:57;59.10;;;33.10;;
21671;SDS011;10997;52.242;8.168;2022-12-10T08:12:57;58.63;;;33.80;;
21671;SDS011;10997;52.242;8.168;2022-12-10T08:17:58;57.80;;;33.50;;
21671;SDS011;10997;52.242;8.168;2022-12-10T08:22:59;53.38;;;31.85;;
21671;SDS011;10997;52.242;8.168;2022-12-10T08:27:59;57.90;;;34.35;;
21671;SDS011;10997;52.242;8.168;2022-12-10T08:33:02;56.78;;;33.78;;
21671;SDS011;10997;52.242;8.168;2022-12-10T08:38:03;57.03;;;33.90;;
21671;SDS011;10997;52.242;8.168;2022-12-10T08:43:04;69.90;;;38.33;;
21671;SDS011;10997;52.242;8.168;2022-12-10T08:48:04;57.03;;;32.08;;
21671;SDS011;10997;52.242;8.168;2022-12-10T08:53:05;55.97;;;32.65;;
21671;SDS011;10997;52.242;8.168;2022-12-10T08:58:05;56.33;;;31.65;;
21671;SDS011;10997;52.242;8.168;2022-12-10T09:03:07;52.90;;;31.50;;
21671;SDS011;10997;52.242;8.168;2022-12-10T09:08:08;52.13;;;31.23;;
21671;SDS011;10997;52.242;8.168;2022-12-10T09:13:09;48.88;;;29.98;;
21671;SDS011;10997;52.242;8.168;2022-12-10T09:18:10;51.20;;;29.17;;
21671;SDS011;10997;52.242;8.168;2022-12-10T09:23:31;51.08;;;30.67;;
21671;SDS011;10997;52.242;8.168;2022-12-10T09:28:31;46.92;;;28.98;;
21671;SDS011;10997;52.242;8.168;2022-12-10T09:33:32;45.17;;;27.27;;
21671;SDS011;10997;52.242;8.168;2022-12-10T09:38:34;45.90;;;27.02;;
21671;SDS011;10997;52.242;8.168;2022-12-10T09:48:53;33.88;;;22.17;;
21671;SDS011;10997;52.242;8.168;2022-12-10T09:54:53;34.92;;;22.05;;
21671;SDS011;10997;52.242;8.168;2022-12-10T09:59:46;31.17;;;19.35;;
21671;SDS011;10997;52.242;8.168;2022-12-10T10:04:50;31.50;;;19.92;;
21671;SDS011;10997;52.242;8.168;2022-12-10T10:09:56;28.80;;;18.38;;
21671;SDS011;10997;52.242;8.168;2022-12-10T10:15:09;30.98;;;19.02;;
21671;SDS011;10997;52.242;8.168;2022-12-10T10:20:14;26.67;;;17.95;;
21671;SDS011;10997;52.242;8.168;2022-12-10T10:25:16;31.17;;;20.73;;
21671;SDS011;10997;52.242;8.168;2022-12-10T10:30:19;28.48;;;19.15;;
21671;SDS011;10997;52.242;8.168;2022-12-10T10:35:23;29.63;;;19.60;;
21671;SDS011;10997;52.242;8.168;2022-12-10T10:40:32;32.25;;;19.92;;
21671;SDS011;10997;52.242;8.168;2022-12-10T10:45:41;30.38;;;20.00;;
21671;SDS011;10997;52.242;8.168;2022-12-10T10:55:53;32.50;;;19.67;;
21671;SDS011;10997;52.242;8.168;2022-12-10T11:01:03;31.92;;;20.17;;
21671;SDS011;10997;52.242;8.168;2022-12-10T11:06:06;29.45;;;19.80;;
21671;SDS011;10997;52.242;8.168;2022-12-10T11:11:51;32.42;;;20.10;;
21671;SDS011;10997;52.242;8.168;2022-12-10T11:16:32;32.03;;;20.85;;
21671;SDS011;10997;52.242;8.168;2022-12-10T11:21:33;36.58;;;24.08;;
21671;SDS011;10997;52.242;8.168;2022-12-10T11:42:24;39.60;;;24.67;;
21671;SDS011;10997;52.242;8.168;2022-12-10T12:03:31;44.33;;;26.35;;
21671;SDS011;10997;52.242;8.168;2022-12-10T12:14:05;46.67;;;27.10;;
21671;SDS011;10997;52.242;8.168;2022-12-10T12:19:28;48.90;;;27.83;;
21671;SDS011;10997;52.242;8.168;2022-12-10T12:24:35;50.17;;;27.95;;
21671;SDS011;10997;52.242;8.168;2022-12-10T12:29:43;48.20;;;27.80;;
21671;SDS011;10997;52.242;8.168;2022-12-10T12:34:53;49.97;;;30.02;;
21671;SDS011;10997;52.242;8.168;2022-12-10T12:40:27;51.10;;;29.35;;
21671;SDS011;10997;52.242;8.168;2022-12-10T12:45:40;54.67;;;29.98;;
21671;SDS011;10997;52.242;8.168;2022-12-10T13:01:31;50.65;;;30.17;;
21671;SDS011;10997;52.242;8.168;2022-12-10T13:06:38;57.38;;;32.83;;
21671;SDS011;10997;52.242;8.168;2022-12-10T13:11:45;48.67;;;29.05;;
21671;SDS011;10997;52.242;8.168;2022-12-10T13:17:08;60.08;;;35.42;;
21671;SDS011;10997;52.242;8.168;2022-12-10T13:27:36;52.72;;;29.33;;
21671;SDS011;10997;52.242;8.168;2022-12-10T13:42:50;50.88;;;28.60;;
21671;SDS011;10997;52.242;8.168;2022-12-10T13:53:37;46.70;;;27.58;;
21671;SDS011;10997;52.242;8.168;2022-12-10T13:58:50;43.28;;;27.20;;
21671;SDS011;10997;52.242;8.168;2022-12-10T14:04:16;47.25;;;27.40;;
21671;SDS011;10997;52.242;8.168;2022-12-10T14:09:47;43.40;;;26.42;;
21671;SDS011;10997;52.242;8.168;2022-12-10T14:14:59;45.83;;;26.20;;
21671;SDS011;10997;52.242;8.168;2022-12-10T14:20:06;46.63;;;26.55;;
21671;SDS011;10997;52.242;8.168;2022-12-10T14:25:13;49.95;;;26.35;;
21671;SDS011;10997;52.242;8.168;2022-12-10T14:30:23;45.22;;;27.05;;
21671;SDS011;10997;52.242;8.168;2022-12-10T14:35:27;46.83;;;26.27;;
21671;SDS011;10997;52.242;8.168;2022-12-10T14:40:32;52.42;;;29.23;;
21671;SDS011;10997;52.242;8.168;2022-12-10T14:45:47;48.78;;;29.30;;
21671;SDS011;10997;52.242;8.168;2022-12-10T14:50:52;49.83;;;29.95;;
21671;SDS011;10997;52.242;8.168;2022-12-10T14:55:53;47.85;;;30.48;;
21671;SDS011;10997;52.242;8.168;2022-12-10T15:00:57;47.90;;;27.67;;
21671;SDS011;10997;52.242;8.168;2022-12-10T15:05:59;49.20;;;26.92;;
21671;SDS011;10997;52.242;8.168;2022-12-10T15:11:06;52.97;;;32.35;;
21671;SDS011;10997;52.242;8.168;2022-12-10T15:16:18;49.70;;;27.95;;
21671;SDS011;10997;52.242;8.168;2022-12-10T15:21:31;56.63;;;32.95;;
21671;SDS011;10997;52.242;8.168;2022-12-10T15:26:32;84.10;;;46.85;;
21671;SDS011;10997;52.242;8.168;2022-12-10T15:31:33;66.70;;;40.00;;
21671;SDS011;10997;52.242;8.168;2022-12-10T15:41:50;55.47;;;32.95;;
21671;SDS011;10997;52.242;8.168;2022-12-10T15:46:56;60.38;;;38.13;;
21671;SDS011;10997;52.242;8.168;2022-12-10T15:57:26;62.47;;;34.13;;
21671;SDS011;10997;52.242;8.168;2022-12-10T16:07:37;62.90;;;33.60;;
21671;SDS011;10997;52.242;8.168;2022-12-10T16:12:38;54.75;;;32.00;;
21671;SDS011;10997;52.242;8.168;2022-12-10T16:17:39;51.28;;;30.23;;
21671;SDS011;10997;52.242;8.168;2022-12-10T16:22:40;63.00;;;38.05;;
21671;SDS011;10997;52.242;8.168;2022-12-10T16:27:40;58.65;;;33.72;;
21671;SDS011;10997;52.242;8.168;2022-12-10T16:32:42;89.50;;;50.70;;
21671;SDS011;10997;52.242;8.168;2022-12-10T16:37:43;57.58;;;31.83;;
21671;SDS011;10997;52.242;8.168;2022-12-10T16:42:46;56.72;;;32.17;;
21671;SDS011;10997;52.242;8.168;2022-12-10T16:47:48;59.13;;;31.90;;
21671;SDS011;10997;52.242;8.168;2022-12-10T16:52:48;62.03;;;33.33;;
21671;SDS011;10997;52.242;8.168;2022-12-10T16:57:51;63.78;;;36.53;;
21671;SDS011;10997;52.242;8.168;2022-12-10T17:02:53;54.25;;;30.85;;
21671;SDS011;10997;52.242;8.168;2022-12-10T17:07:54;55.15;;;30.55;;
21671;SDS011;10997;52.242;8.168;2022-12-10T17:12:54;56.50;;;31.38;;
21671;SDS011;10997;52.242;8.168;2022-12-10T17:17:55;52.67;;;30.73;;
21671;SDS011;10997;52.242;8.168;2022-12-10T17:22:56;55.17;;;31.05;;
21671;SDS011;10997;52.242;8.168;2022-12-10T17:27:56;61.00;;;33.72;;
21671;SDS011;10997;52.242;8.168;2022-12-10T17:32:57;58.03;;;34.03;;
21671;SDS011;10997;52.242;8.168;2022-12-10T17:37:58;55.22;;;32.78;;
21671;SDS011;10997;52.242;8.168;2022-12-10T17:42:58;65.90;;;34.83;;
21671;SDS011;10997;52.242;8.168;2022-12-10T17:47:59;63.03;;;36.60;;
21671;SDS011;10997;52.242;8.168;2022-12-10T17:53:00;69.80;;;40.88;;
21671;SDS011;10997;52.242;8.168;2022-12-10T17:58:03;66.38;;;36.60;;
21671;SDS011;10997;52.242;8.168;2022-12-10T18:03:04;68.28;;;36.78;;
21671;SDS011;10997;52.242;8.168;2022-12-10T18:08:05;60.58;;;35.42;;
21671;SDS011;10997;52.242;8.168;2022-12-10T18:13:06;69.25;;;36.97;;
21671;SDS011;10997;52.242;8.168;2022-12-10T18:18:08;69.55;;;36.55;;
21671;SDS011;10997;52.242;8.168;2022-12-10T18:23:10;66.53;;;36.15;;
21671;SDS011;10997;52.242;8.168;2022-12-10T18:28:41;62.58;;;34.50;;
21671;SDS011;10997;52.242;8.168;2022-12-10T18:33:39;59.90;;;34.60;;
21671;SDS011;10997;52.242;8.168;2022-12-10T18:38:43;59.05;;;33.65;;
21671;SDS011;10997;52.242;8.168;2022-12-10T18:43:45;65.55;;;35.85;;
21671;SDS011;10997;52.242;8.168;2022-12-10T18:48:46;62.47;;;36.45;;
21671;SDS011;10997;52.242;8.168;2022-12-10T18:53:47;63.75;;;35.38;;
21671;SDS011;10997;52.242;8.168;2022-12-10T18:58:47;64.38;;;35.38;;
21671;SDS011;10997;52.242;8.168;2022-12-10T19:03:48;64.55;;;36.38;;
21671;SDS011;10997;52.242;8.168;2022-12-10T19:08:53;69.82;;;36.03;;
21671;SDS011;10997;52.242;8.168;2022-12-10T19:13:54;64.55;;;36.22;;
21671;SDS011;10997;52.242;8.168;2022-12-10T19:18:55;66.72;;;36.58;;
21671;SDS011;10997;52.242;8.168;2022-12-10T19:24:00;65.17;;;35.63;;
21671;SDS011;10997;52.242;8.168;2022-12-10T19:29:15;69.15;;;37.15;;
21671;SDS011;10997;52.242;8.168;2022-12-10T19:34:17;70.15;;;37.15;;
21671;SDS011;10997;52.242;8.168;2022-12-10T19:39:20;67.25;;;36.72;;
21671;SDS011;10997;52.242;8.168;2022-12-10T19:44:22;72.22;;;37.92;;
21671;SDS011;10997;52.242;8.168;2022-12-10T19:49:22;68.70;;;37.20;;
21671;SDS011;10997;52.242;8.168;2022-12-10T19:54:23;74.55;;;38.42;;
21671;SDS011;10997;52.242;8.168;2022-12-10T19:59:24;83.50;;;39.95;;
21671;SDS011;10997;52.242;8.168;2022-12-10T20:04:24;80.32;;;39.50;;
21671;SDS011;10997;52.242;8.168;2022-12-10T20:09:25;76.63;;;38.83;;
21671;SDS011;10997;52.242;8.168;2022-12-10T20:14:27;92.38;;;42.45;;
21671;SDS011;10997;52.242;8.168;2022-12-10T20:19:27;85.47;;;40.63;;
21671;SDS011;10997;52.242;8.168;2022-12-10T20:24:28;108.47;;;45.03;;
21671;SDS011;10997;52.242;8.168;2022-12-10T20:29:28;96.70;;;41.17;;
21671;SDS011;10997;52.242;8.168;2022-12-10T20:34:29;99.65;;;42.85;;
21671;SDS011;10997;52.242;8.168;2022-12-10T20:39:31;100.15;;;43.15;;
21671;SDS011;10997;52.242;8.168;2022-12-10T20:44:33;97.63;;;44.20;;
21671;SDS011;10997;52.242;8.168;2022-12-10T20:49:33;101.63;;;43.17;;
21671;SDS011;10997;52.242;8.168;2022-12-10T20:54:34;108.93;;;44.38;;
21671;SDS011;10997;52.242;8.168;2022-12-10T20:59:35;105.72;;;43.33;;
21671;SDS011;10997;52.242;8.168;2022-12-10T21:04:36;120.10;;;45.42;;
21671;SDS011;10997;52.242;8.168;2022-12-10T21:09:37;106.18;;;45.33;;
21671;SDS011;10997;52.242;8.168;2022-12-10T21:14:38;113.80;;;45.15;;
21671;SDS011;10997;52.242;8.168;2022-12-10T21:19:38;104.72;;;43.47;;
21671;SDS011;10997;52.242;8.168;2022-12-10T21:24:39;105.68;;;44.40;;
21671;SDS011;10997;52.242;8.168;2022-12-10T21:29:40;104.38;;;44.83;;
21671;SDS011;10997;52.242;8.168;2022-12-10T21:34:40;106.85;;;45.40;;
21671;SDS011;10997;52.242;8.168;2022-12-10T21:39:41;119.40;;;47.08;;
21671;SDS011;10997;52.242;8.168;2022-12-10T21:44:42;121.18;;;46.88;;
21671;SDS011;10997;52.242;8.168;2022-12-10T21:49:42;123.15;;;45.97;;
21671;SDS011;10997;52.242;8.168;2022-12-10T21:54:43;119.55;;;46.97;;
21671;SDS011;10997;52.242;8.168;2022-12-10T21:59:44;115.75;;;46.75;;
21671;SDS011;10997;52.242;8.168;2022-12-10T22:04:44;115.63;;;47.03;;
21671;SDS011;10997;52.242;8.168;2022-12-10T22:09:45;120.90;;;45.95;;
21671;SDS011;10997;52.242;8.168;2022-12-10T22:14:45;115.78;;;47.53;;
21671;SDS011;10997;52.242;8.168;2022-12-10T22:19:46;125.53;;;46.28;;
21671;SDS011;10997;52.242;8.168;2022-12-10T22:24:46;128.20;;;47.63;;
21671;SDS011;10997;52.242;8.168;2022-12-10T22:29:47;112.88;;;47.83;;
21671;SDS011;10997;52.242;8.168;2022-12-10T22:34:51;130.20;;;53.78;;
21671;SDS011;10997;52.242;8.168;2022-12-10T22:39:51;116.60;;;49.08;;
21671;SDS011;10997;52.242;8.168;2022-12-10T22:44:53;127.53;;;48.08;;
21671;SDS011;10997;52.242;8.168;2022-12-10T22:49:54;119.82;;;47.78;;
21671;SDS011;10997;52.242;8.168;2022-12-10T22:54:55;124.07;;;49.83;;
21671;SDS011;10997;52.242;8.168;2022-12-10T22:59:56;132.07;;;51.80;;
21671;SDS011;10997;52.242;8.168;2022-12-10T23:04:57;128.93;;;49.78;;
21671;SDS011;10997;52.242;8.168;2022-12-10T23:10:00;118.72;;;48.03;;
21671;SDS011;10997;52.242;8.168;2022-12-10T23:15:02;126.80;;;48.88;;
21671;SDS011;10997;52.242;8.168;2022-12-10T23:20:03;120.18;;;48.25;;
21671;SDS011;10997;52.242;8.168;2022-12-10T23:25:04;114.97;;;46.05;;
21671;SDS011;10997;52.242;8.168;2022-12-10T23:30:05;105.00;;;43.70;;
21671;SDS011;10997;52.242;8.168;2022-12-10T23:35:07;109.72;;;45.35;;
21671;SDS011;10997;52.242;8.168;2022-12-10T23:40:08;111.22;;;45.22;;
21671;SDS011;10997;52.242;8.168;2022-12-10T23:45:10;118.90;;;45.75;;
21671;SDS011;10997;52.242;8.168;2022-12-10T23:50:14;119.15;;;46.53;;
21671;SDS011;10997;52.242;8.168;2022-12-10T23:55:14;106.55;;;43.47;;
